createdAt,value
2017-08-10T00:01:02.360Z,13.80
2017-08-10T00:03:30.086Z,14.60
2017-08-10T00:05:57.914Z,13.70
2017-08-10T00:08:25.466Z,14.40
2017-08-10T00:10:53.065Z,14.93
2017-08-10T00:13:20.808Z,13.77
2017-08-10T00:15:48.344Z,11.80
2017-08-10T00:18:15.953Z,13.37
2017-08-10T00:20:43.808Z,14.00
2017-08-10T00:23:11.825Z,14.17
2017-08-10T00:25:39.719Z,14.10
2017-08-10T00:28:07.309Z,12.70
2017-08-10T00:30:34.972Z,13.07
2017-08-10T00:33:02.583Z,12.60
2017-08-10T00:35:30.413Z,14.33
2017-08-10T00:37:58.008Z,12.80
2017-08-10T00:40:25.581Z,13.00
2017-08-10T00:42:53.087Z,15.43
2017-08-10T00:45:20.663Z,13.63
2017-08-10T00:47:48.186Z,13.90
2017-08-10T00:50:15.734Z,14.40
2017-08-10T00:52:43.266Z,12.40
2017-08-10T00:55:10.843Z,14.27
2017-08-10T00:57:38.421Z,13.50
2017-08-10T01:00:06.181Z,12.93
2017-08-10T01:02:33.859Z,12.13
2017-08-10T01:05:03.402Z,12.20
2017-08-10T01:07:31.326Z,12.07
2017-08-10T01:10:00.390Z,13.70
2017-08-10T01:12:27.936Z,14.03
2017-08-10T01:14:55.465Z,12.67
2017-08-10T01:17:25.290Z,12.40
2017-08-10T01:19:52.899Z,12.67
2017-08-10T01:22:20.408Z,12.47
2017-08-10T01:24:47.993Z,12.43
2017-08-10T01:27:15.560Z,12.47
2017-08-10T01:29:43.078Z,12.03
2017-08-10T01:32:12.370Z,12.13
2017-08-10T01:34:39.938Z,13.00
2017-08-10T01:37:09.453Z,11.60
2017-08-10T01:39:38.350Z,11.40
2017-08-10T01:42:06.065Z,12.20
2017-08-10T01:44:33.650Z,10.77
2017-08-10T01:47:01.731Z,10.80
2017-08-10T01:49:29.404Z,11.90
2017-08-10T01:51:57.191Z,11.93
2017-08-10T01:54:25.195Z,12.13
2017-08-10T01:56:52.889Z,11.73
2017-08-10T01:59:20.410Z,12.40
2017-08-10T02:01:47.966Z,11.30
2017-08-10T02:04:15.500Z,11.77
2017-08-10T02:06:43.620Z,11.03
2017-08-10T02:09:12.088Z,10.90
2017-08-10T02:11:40.417Z,11.00
2017-08-10T02:14:08.916Z,10.00
2017-08-10T02:16:36.478Z,10.10
2017-08-10T02:19:05.818Z,10.20
2017-08-10T02:21:34.599Z,11.20
2017-08-10T02:24:02.577Z,11.23
2017-08-10T02:26:30.612Z,11.23
2017-08-10T02:28:58.207Z,11.47
2017-08-10T02:31:25.744Z,10.63
2017-08-10T02:33:53.310Z,10.33
2017-08-10T02:36:21.681Z,10.93
2017-08-10T02:38:49.202Z,10.80
2017-08-10T02:41:16.790Z,12.23
2017-08-10T02:43:45.190Z,10.80
2017-08-10T02:46:12.757Z,10.60
2017-08-10T02:48:40.295Z,10.77
2017-08-10T02:51:07.847Z,10.30
2017-08-10T02:53:37.428Z,11.00
2017-08-10T02:56:05.092Z,10.60
2017-08-10T02:58:32.737Z,11.87
2017-08-10T03:01:00.532Z,10.30
2017-08-10T03:03:28.599Z,9.63
2017-08-10T03:05:56.217Z,10.90
2017-08-10T03:08:24.287Z,10.63
2017-08-10T03:10:51.864Z,9.80
2017-08-10T03:13:19.428Z,11.67
2017-08-10T03:15:47.861Z,11.23
2017-08-10T03:18:15.453Z,10.50
2017-08-10T03:20:42.979Z,10.70
2017-08-10T03:23:10.625Z,9.33
2017-08-10T03:25:38.269Z,10.70
2017-08-10T03:28:05.773Z,9.57
2017-08-10T03:30:33.408Z,10.23
2017-08-10T03:33:01.324Z,9.87
2017-08-10T03:35:28.852Z,9.57
2017-08-10T03:37:56.384Z,11.20
2017-08-10T03:40:24.089Z,10.53
2017-08-10T03:42:51.657Z,10.40
2017-08-10T03:45:20.224Z,9.90
2017-08-10T03:47:47.740Z,10.27
2017-08-10T03:50:15.307Z,8.97
2017-08-10T03:52:42.817Z,9.80
2017-08-10T03:55:11.801Z,10.43
2017-08-10T03:57:39.318Z,10.33
2017-08-10T04:00:06.835Z,9.70
2017-08-10T04:02:34.385Z,9.90
2017-08-10T04:05:01.993Z,13.90
2017-08-10T04:07:30.998Z,12.53
2017-08-10T04:09:58.692Z,13.10
2017-08-10T04:12:26.322Z,11.90
2017-08-10T04:14:53.965Z,11.97
2017-08-10T04:17:21.584Z,11.70
2017-08-10T04:19:51.182Z,13.53
2017-08-10T04:22:18.700Z,13.10
2017-08-10T04:24:46.298Z,12.73
2017-08-10T04:27:13.830Z,12.90
2017-08-10T04:29:41.407Z,23.50
2017-08-10T04:32:09.161Z,13.30
2017-08-10T04:34:36.673Z,12.77
2017-08-10T04:37:04.188Z,12.20
2017-08-10T04:39:32.009Z,13.80
2017-08-10T04:42:00.150Z,13.90
2017-08-10T04:44:27.743Z,11.87
2017-08-10T04:46:55.367Z,12.83
2017-08-10T04:49:22.945Z,11.47
2017-08-10T04:51:50.988Z,12.03
2017-08-10T04:54:18.586Z,11.00
2017-08-10T04:56:47.786Z,11.40
2017-08-10T04:59:15.442Z,10.70
2017-08-10T05:01:44.967Z,11.13
2017-08-10T05:04:12.717Z,11.10
2017-08-10T05:06:40.249Z,10.33
2017-08-10T05:09:08.963Z,10.37
2017-08-10T05:11:38.616Z,10.97
2017-08-10T05:14:07.079Z,10.33
2017-08-10T05:16:34.879Z,9.60
2017-08-10T05:19:02.848Z,9.80
2017-08-10T05:21:30.679Z,11.63
2017-08-10T05:23:58.258Z,10.97
2017-08-10T05:26:25.819Z,11.20
2017-08-10T05:28:53.365Z,11.07
2017-08-10T05:31:21.751Z,10.53
2017-08-10T05:33:53.909Z,10.60
2017-08-10T05:36:22.315Z,10.30
2017-08-10T05:38:53.175Z,8.80
2017-08-10T05:41:37.173Z,10.30
2017-08-10T05:44:11.086Z,12.73
2017-08-10T05:49:57.003Z,10.57
2017-08-10T05:52:25.992Z,10.90
2017-08-10T05:54:53.739Z,11.77
2017-08-10T05:57:21.348Z,11.03
2017-08-10T05:59:48.913Z,10.53
2017-08-10T06:02:16.802Z,10.50
2017-08-10T06:04:44.414Z,11.17
2017-08-10T06:07:12.272Z,10.70
2017-08-10T06:09:39.867Z,9.97
2017-08-10T06:12:12.003Z,10.93
2017-08-10T06:14:42.382Z,10.03
2017-08-10T06:17:10.120Z,11.07
2017-08-10T06:19:45.561Z,10.87
2017-08-10T06:22:14.312Z,11.37
2017-08-10T06:24:44.372Z,10.90
2017-08-10T06:27:12.834Z,11.00
2017-08-10T06:29:41.430Z,11.80
2017-08-10T06:32:09.148Z,11.77
2017-08-10T06:34:37.947Z,10.30
2017-08-10T06:37:05.918Z,10.83
2017-08-10T06:39:38.879Z,10.77
2017-08-10T06:42:07.313Z,11.10
2017-08-10T06:44:36.168Z,10.40
2017-08-10T06:47:04.145Z,9.67
2017-08-10T06:49:37.137Z,10.97
2017-08-10T06:52:05.268Z,11.07
2017-08-10T06:54:33.131Z,11.10
2017-08-10T06:57:01.523Z,11.30
2017-08-10T06:59:29.181Z,10.23
2017-08-10T07:01:56.859Z,10.67
2017-08-10T07:04:24.406Z,9.30
2017-08-10T07:06:51.991Z,9.47
2017-08-10T07:09:19.562Z,10.20
2017-08-10T07:11:47.096Z,9.83
2017-08-10T07:14:14.712Z,9.90
2017-08-10T07:16:43.809Z,10.17
2017-08-10T07:19:11.702Z,11.73
2017-08-10T07:21:39.273Z,9.83
2017-08-10T07:24:07.983Z,11.10
2017-08-10T07:26:35.617Z,11.40
2017-08-10T07:29:05.421Z,10.20
2017-08-10T07:31:33.663Z,11.27
2017-08-10T07:34:02.178Z,9.40
2017-08-10T07:36:33.796Z,12.07
2017-08-10T07:39:25.497Z,11.93
2017-08-10T07:41:53.761Z,9.93
2017-08-10T07:47:37.553Z,10.13
2017-08-10T07:50:06.622Z,11.23
2017-08-10T07:52:50.080Z,11.47
2017-08-10T07:55:17.800Z,12.80
2017-08-10T07:57:46.898Z,10.80
2017-08-10T08:00:18.018Z,11.63
2017-08-10T08:02:48.166Z,11.47
2017-08-10T08:05:16.821Z,11.90
2017-08-10T08:07:44.660Z,11.93
2017-08-10T08:10:12.673Z,10.80
2017-08-10T08:12:40.474Z,10.30
2017-08-10T08:15:17.358Z,12.60
2017-08-10T08:17:45.162Z,11.40
2017-08-10T08:20:12.846Z,10.50
2017-08-10T08:22:41.136Z,10.87
2017-08-10T08:25:09.436Z,10.70
2017-08-10T08:27:37.797Z,10.90
2017-08-10T08:30:06.155Z,10.50
2017-08-10T08:32:35.468Z,9.90
2017-08-10T08:35:03.278Z,11.87
2017-08-10T08:37:31.266Z,10.93
2017-08-10T08:39:58.949Z,13.03
2017-08-10T08:42:28.158Z,12.27
2017-08-10T08:44:56.022Z,10.33
2017-08-10T08:47:23.711Z,10.97
2017-08-10T08:49:51.978Z,11.33
2017-08-10T08:52:20.251Z,10.07
2017-08-10T08:54:47.935Z,10.77
2017-08-10T08:57:15.498Z,11.03
2017-08-10T08:59:43.917Z,11.47
2017-08-10T09:02:12.775Z,11.27
2017-08-10T09:10:31.864Z,9.63
2017-08-10T09:13:13.867Z,10.83
2017-08-10T09:15:43.063Z,10.67
2017-08-10T09:18:16.013Z,12.47
2017-08-10T09:20:50.646Z,11.23
2017-08-10T09:23:20.767Z,10.47
2017-08-10T09:25:49.945Z,10.70
2017-08-10T09:28:18.039Z,10.87
2017-08-10T09:30:47.343Z,9.60
2017-08-10T09:33:20.772Z,10.03
2017-08-10T09:35:49.225Z,11.27
2017-08-10T09:38:19.145Z,10.77
2017-08-10T09:40:49.543Z,12.03
2017-08-10T09:43:19.237Z,10.50
2017-08-10T09:45:47.615Z,11.07
2017-08-10T09:48:22.498Z,10.40
2017-08-10T09:50:52.427Z,10.63
2017-08-10T09:53:20.320Z,10.60
2017-08-10T09:55:53.296Z,10.90
2017-08-10T09:58:20.972Z,10.33
2017-08-10T10:04:12.022Z,11.80
2017-08-10T10:06:57.327Z,11.27
2017-08-10T10:09:25.373Z,10.80
2017-08-10T10:11:53.705Z,9.50
2017-08-10T10:14:22.003Z,10.73
2017-08-10T10:16:53.478Z,11.10
2017-08-10T10:19:21.648Z,10.07
2017-08-10T10:21:49.605Z,10.67
2017-08-10T10:24:19.798Z,9.97
2017-08-10T10:26:49.998Z,10.10
2017-08-10T10:29:19.402Z,10.13
2017-08-10T10:31:47.194Z,10.70
2017-08-10T10:37:07.377Z,10.90
2017-08-10T10:39:40.361Z,10.37
2017-08-10T10:42:08.218Z,10.63
2017-08-10T10:44:36.302Z,10.40
2017-08-10T10:47:06.410Z,10.47
2017-08-10T10:49:35.880Z,10.80
2017-08-10T10:52:07.291Z,10.30
2017-08-10T10:54:36.334Z,10.20
2017-08-10T10:57:04.413Z,11.10
2017-08-10T10:59:36.628Z,10.50
2017-08-10T11:02:11.851Z,10.80
2017-08-10T11:04:39.528Z,10.70
2017-08-10T11:07:08.167Z,10.77
2017-08-10T11:09:35.890Z,10.80
2017-08-10T11:12:03.922Z,11.20
2017-08-10T11:14:31.797Z,10.30
2017-08-10T11:16:59.621Z,11.30
2017-08-10T11:19:31.833Z,10.63
2017-08-10T11:22:16.627Z,9.97
2017-08-10T11:24:44.651Z,10.67
2017-08-10T11:29:50.939Z,12.03
2017-08-10T11:40:08.682Z,10.55
2017-08-10T11:42:38.562Z,10.23
2017-08-10T11:45:06.901Z,10.80
2017-08-10T11:47:34.721Z,10.70
2017-08-10T11:50:02.506Z,11.10
2017-08-10T11:52:30.810Z,11.30
2017-08-10T11:54:59.031Z,10.70
2017-08-10T11:57:26.822Z,11.00
2017-08-10T11:59:55.840Z,9.90
2017-08-10T12:02:23.902Z,11.50
2017-08-10T12:04:52.666Z,11.00
2017-08-10T12:07:36.498Z,10.40
2017-08-10T12:10:08.085Z,11.10
2017-08-10T12:12:36.159Z,11.57
2017-08-10T12:15:04.136Z,11.50
2017-08-10T12:17:32.374Z,11.07
2017-08-10T12:20:05.816Z,11.27
2017-08-10T12:22:34.080Z,10.77
2017-08-10T12:25:02.263Z,10.53
2017-08-10T12:27:29.815Z,10.33
2017-08-10T12:29:57.851Z,10.77
2017-08-10T12:32:25.806Z,10.23
2017-08-10T12:34:53.906Z,10.27
2017-08-10T12:37:21.527Z,11.37
2017-08-10T12:39:49.141Z,9.97
2017-08-10T12:42:17.712Z,10.80
2017-08-10T12:44:45.418Z,10.87
2017-08-10T12:47:13.041Z,10.93
2017-08-10T12:49:42.866Z,11.23
2017-08-10T12:52:11.951Z,10.60
2017-08-10T12:54:42.950Z,11.40
2017-08-10T12:57:15.304Z,10.23
2017-08-10T12:59:44.373Z,10.33
2017-08-10T13:02:13.279Z,11.07
2017-08-10T13:04:44.128Z,11.40
2017-08-10T13:07:15.317Z,10.20
2017-08-10T13:09:45.990Z,11.30
2017-08-10T13:12:13.734Z,9.93
2017-08-10T13:14:46.228Z,10.97
2017-08-10T13:17:13.942Z,12.50
2017-08-10T13:19:49.499Z,11.27
2017-08-10T13:22:31.486Z,11.00
2017-08-10T13:25:01.658Z,9.80
2017-08-10T13:28:02.151Z,11.60
2017-08-10T13:30:32.521Z,11.47
2017-08-10T13:35:39.365Z,10.50
2017-08-10T13:38:07.878Z,12.80
2017-08-10T13:40:35.752Z,12.03
2017-08-10T13:43:04.365Z,10.93
2017-08-10T13:45:35.351Z,12.03
2017-08-10T13:48:04.496Z,10.87
2017-08-10T13:50:43.279Z,11.03
2017-08-10T13:53:13.425Z,11.40
2017-08-10T13:55:42.681Z,10.77
2017-08-10T13:58:10.736Z,11.53
2017-08-10T14:00:38.403Z,10.37
2017-08-10T14:03:12.941Z,9.13
2017-08-10T14:05:40.748Z,10.10
2017-08-10T14:08:08.610Z,11.77
2017-08-10T14:10:36.290Z,11.13
2017-08-10T14:13:03.942Z,10.50
2017-08-10T14:15:32.369Z,11.30
2017-08-10T14:17:59.904Z,10.43
2017-08-10T14:20:27.506Z,10.60
2017-08-10T14:22:55.252Z,10.00
2017-08-10T14:25:23.173Z,9.00
2017-08-10T14:27:50.762Z,11.40
2017-08-10T14:30:18.440Z,9.70
2017-08-10T14:32:46.382Z,10.87
2017-08-10T14:35:13.976Z,10.23
2017-08-10T14:37:41.555Z,10.40
2017-08-10T14:40:09.282Z,10.70
2017-08-10T14:42:37.241Z,11.73
2017-08-10T14:45:04.842Z,10.73
2017-08-10T14:47:33.822Z,10.20
2017-08-10T14:50:01.591Z,10.50
2017-08-10T14:52:29.331Z,11.00
2017-08-10T14:54:57.114Z,11.77
2017-08-10T14:57:24.931Z,11.10
2017-08-10T14:59:59.120Z,10.23
2017-08-10T15:02:36.168Z,11.47
2017-08-10T15:05:04.708Z,10.50
2017-08-10T15:07:33.126Z,10.33
2017-08-10T15:10:04.377Z,11.50
2017-08-10T15:12:32.586Z,10.73
2017-08-10T15:15:00.154Z,9.90
2017-08-10T15:17:27.723Z,11.23
2017-08-10T15:19:55.316Z,9.77
2017-08-10T15:22:22.938Z,10.80
2017-08-10T15:24:51.837Z,9.27
2017-08-10T15:27:19.404Z,9.63
2017-08-10T15:29:47.072Z,11.47
2017-08-10T15:32:14.704Z,11.17
2017-08-10T15:34:42.339Z,10.67
2017-08-10T15:37:09.946Z,11.20
2017-08-10T15:39:37.486Z,9.97
2017-08-10T15:42:05.177Z,10.63
2017-08-10T15:44:32.900Z,10.30
2017-08-10T15:47:00.599Z,10.40
2017-08-10T15:49:28.175Z,10.90
2017-08-10T15:51:55.788Z,10.20
2017-08-10T15:54:23.337Z,10.53
2017-08-10T15:56:50.919Z,10.43
2017-08-10T15:59:22.347Z,10.47
2017-08-10T16:01:50.018Z,9.57
2017-08-10T16:04:17.617Z,10.53
2017-08-10T16:06:45.139Z,10.33
2017-08-10T16:09:12.718Z,10.57
2017-08-10T16:11:40.314Z,10.10
2017-08-10T16:14:07.836Z,10.90
2017-08-10T16:16:35.401Z,10.53
2017-08-10T16:19:03.066Z,10.87
2017-08-10T16:21:30.700Z,10.30
2017-08-10T16:23:58.210Z,9.97
2017-08-10T16:26:25.723Z,9.90
2017-08-10T16:28:54.105Z,8.70
2017-08-10T16:31:21.687Z,11.03
2017-08-10T16:33:49.294Z,9.03
2017-08-10T16:36:17.144Z,9.90
2017-08-10T16:38:44.758Z,10.77
2017-08-10T16:41:12.445Z,10.13
2017-08-10T16:43:40.030Z,10.50
2017-08-10T16:46:07.738Z,10.93
2017-08-10T16:48:35.426Z,9.90
2017-08-10T16:51:04.077Z,10.70
2017-08-10T16:53:31.719Z,10.83
2017-08-10T16:55:59.490Z,10.70
2017-08-10T16:58:27.066Z,10.73
2017-08-10T17:00:54.598Z,11.00
2017-08-10T17:03:22.141Z,11.40
2017-08-10T17:05:49.726Z,10.60
2017-08-10T17:08:17.257Z,11.10
2017-08-10T17:10:44.815Z,11.03
2017-08-10T17:13:12.492Z,11.23
2017-08-10T17:15:40.082Z,11.17
2017-08-10T17:18:07.633Z,13.23
2017-08-10T17:20:35.309Z,12.00
2017-08-10T17:23:02.913Z,11.30
2017-08-10T17:25:30.518Z,12.40
2017-08-10T17:27:58.109Z,13.33
2017-08-10T17:30:25.634Z,12.00
2017-08-10T17:32:53.172Z,12.10
2017-08-10T17:35:20.779Z,14.10
2017-08-10T17:37:48.317Z,11.20
2017-08-10T17:40:15.851Z,12.30
2017-08-10T17:42:43.436Z,12.50
2017-08-10T17:45:10.949Z,12.70
2017-08-10T17:47:38.700Z,11.83
2017-08-10T17:50:06.332Z,12.10
2017-08-10T17:52:33.954Z,15.30
2017-08-10T17:55:01.560Z,12.73
2017-08-10T17:57:29.132Z,12.20
2017-08-10T17:59:56.633Z,13.10
2017-08-10T18:02:24.277Z,12.40
2017-08-10T18:04:51.835Z,11.50
2017-08-10T18:07:19.393Z,12.53
2017-08-10T18:09:46.942Z,12.60
2017-08-10T18:12:14.508Z,14.33
2017-08-10T18:14:42.021Z,12.30
2017-08-10T18:17:09.583Z,13.83
2017-08-10T18:19:37.103Z,14.80
2017-08-10T18:22:04.613Z,13.23
2017-08-10T18:24:32.197Z,12.90
2017-08-10T18:26:59.708Z,13.93
2017-08-10T18:29:27.273Z,12.93
2017-08-10T18:31:54.834Z,13.30
2017-08-10T18:34:22.406Z,13.63
2017-08-10T18:36:49.923Z,12.50
2017-08-10T18:39:17.472Z,13.70
2017-08-10T18:41:44.992Z,13.10
2017-08-10T18:44:12.565Z,14.03
2017-08-10T18:46:40.073Z,13.63
2017-08-10T18:49:07.598Z,13.20
2017-08-10T18:51:35.194Z,13.07
2017-08-10T18:54:02.718Z,12.77
2017-08-10T18:56:30.230Z,12.90
2017-08-10T18:58:57.822Z,12.37
2017-08-10T19:01:25.370Z,11.93
2017-08-10T19:03:52.912Z,10.73
2017-08-10T19:06:20.438Z,12.10
2017-08-10T19:08:47.999Z,11.60
2017-08-10T19:11:15.514Z,14.90
2017-08-10T19:13:43.073Z,14.43
2017-08-10T19:16:10.578Z,12.60
2017-08-10T19:18:38.177Z,14.57
2017-08-10T19:21:05.717Z,14.20
2017-08-10T19:23:33.241Z,11.93
2017-08-10T19:26:00.829Z,12.33
2017-08-10T19:28:28.337Z,12.03
2017-08-10T19:30:55.889Z,13.23
2017-08-10T19:33:23.469Z,13.53
2017-08-10T19:35:51.018Z,13.90
2017-08-10T19:38:18.597Z,12.80
2017-08-10T19:40:46.118Z,13.80
2017-08-10T19:43:13.635Z,13.93
2017-08-10T19:45:41.203Z,13.97
2017-08-10T19:48:08.718Z,13.13
2017-08-10T19:50:36.285Z,13.40
2017-08-10T19:53:03.932Z,12.63
2017-08-10T19:55:31.530Z,13.50
2017-08-10T19:57:59.077Z,13.77
2017-08-10T20:00:26.599Z,14.37
2017-08-10T20:02:54.166Z,12.90
2017-08-10T20:05:21.679Z,13.80
2017-08-10T20:07:49.189Z,14.20
2017-08-10T20:10:16.739Z,14.57
2017-08-10T20:12:44.351Z,13.97
2017-08-10T20:15:11.862Z,13.90
2017-08-10T20:17:39.366Z,14.53
2017-08-10T20:20:06.940Z,12.83
2017-08-10T20:22:34.447Z,12.63
2017-08-10T20:25:01.969Z,14.40
2017-08-10T20:27:34.287Z,12.63
2017-08-10T20:30:01.823Z,13.80
2017-08-10T20:32:29.329Z,13.43
2017-08-10T20:34:56.877Z,13.87
2017-08-10T20:37:24.390Z,13.80
2017-08-10T20:39:52.022Z,13.10
2017-08-10T20:42:19.579Z,13.70
2017-08-10T20:44:47.133Z,14.40
2017-08-10T20:47:14.653Z,12.27
2017-08-10T20:49:42.161Z,13.17
2017-08-10T20:52:09.723Z,14.17
2017-08-10T20:54:37.229Z,12.27
2017-08-10T20:57:04.786Z,13.67
2017-08-10T20:59:32.306Z,12.90
2017-08-10T21:01:59.854Z,12.80
2017-08-10T21:04:27.429Z,13.10
2017-08-10T21:06:54.939Z,13.97
2017-08-10T21:09:22.454Z,13.77
2017-08-10T21:11:49.997Z,13.47
2017-08-10T21:14:17.541Z,12.80
2017-08-10T21:16:45.095Z,13.93
2017-08-10T21:19:12.673Z,12.90
2017-08-10T21:21:40.185Z,12.43
2017-08-10T21:24:07.700Z,12.50
2017-08-10T21:26:35.255Z,12.73
2017-08-10T21:29:02.826Z,13.60
2017-08-10T21:31:30.340Z,14.20
2017-08-10T21:33:57.858Z,13.33
2017-08-10T21:36:25.443Z,11.47
2017-08-10T21:38:52.994Z,12.27
2017-08-10T21:41:20.541Z,12.50
2017-08-10T21:43:48.110Z,12.90
2017-08-10T21:46:15.657Z,13.43
2017-08-10T21:48:43.173Z,13.80
2017-08-10T21:51:10.716Z,11.30
2017-08-10T21:53:38.301Z,12.27
2017-08-10T21:56:05.896Z,12.57
2017-08-10T21:58:33.413Z,11.77
2017-08-10T22:01:00.962Z,11.73
2017-08-10T22:03:28.519Z,11.80
2017-08-10T22:05:56.025Z,12.80
2017-08-10T22:08:23.573Z,11.77
2017-08-10T22:10:51.169Z,12.67
2017-08-10T22:13:18.685Z,12.90
2017-08-10T22:15:46.258Z,13.07
2017-08-10T22:18:13.765Z,13.43
2017-08-10T22:20:41.371Z,12.80
2017-08-10T22:23:08.878Z,12.10
2017-08-10T22:25:36.399Z,13.70
2017-08-10T22:28:03.952Z,12.33
2017-08-10T22:30:31.508Z,12.50
2017-08-10T22:32:59.021Z,11.87
2017-08-10T22:35:26.570Z,12.07
2017-08-10T22:37:54.145Z,11.87
2017-08-10T22:40:21.673Z,11.37
2017-08-10T22:42:49.217Z,12.47
2017-08-10T22:45:16.770Z,12.20
2017-08-10T22:47:44.329Z,12.80
2017-08-10T22:50:11.890Z,13.70
2017-08-10T22:52:39.416Z,13.07
2017-08-10T22:55:06.930Z,12.00
2017-08-10T22:57:34.618Z,12.67
2017-08-10T23:00:02.161Z,13.57
2017-08-10T23:02:29.683Z,12.47
2017-08-10T23:04:57.222Z,10.77
2017-08-10T23:07:24.729Z,11.77
2017-08-10T23:09:52.286Z,10.87
2017-08-10T23:12:19.797Z,12.90
2017-08-10T23:14:47.366Z,11.53
2017-08-10T23:17:14.871Z,12.80
2017-08-10T23:19:42.426Z,10.50
2017-08-10T23:22:09.951Z,12.60
2017-08-10T23:24:37.513Z,11.50
2017-08-10T23:27:05.031Z,10.80
2017-08-10T23:29:32.633Z,12.23
2017-08-10T23:32:00.145Z,12.90
2017-08-10T23:34:27.645Z,12.13
2017-08-10T23:36:55.205Z,11.37
2017-08-10T23:39:22.749Z,11.77
2017-08-10T23:41:50.294Z,11.60
2017-08-10T23:44:17.834Z,11.23
2017-08-10T23:46:45.388Z,12.63
2017-08-10T23:49:12.925Z,12.23
2017-08-10T23:51:40.433Z,11.83
2017-08-10T23:54:08.033Z,11.80
2017-08-10T23:56:35.549Z,10.90
2017-08-10T23:59:03.097Z,11.27
